Time;durP1;ratioP1;P1;durP2;ratioP2;P2;SDS_P1;SDS_P2;PMS_P1;PMS_P2;Temp;Humidity;BMP_temperature;BMP_pressure;BME280_temperature;BME280_humidity;BME280_pressure;Samples;Min_cycle;Max_cycle;Signal;HPM_P1;HPM_P2
2022/05/05 00:00:38;;;;;;;28.17;16.83;;;22.70;44.10;;;;;;5050139;28;20032;-81
2022/05/05 00:03:04;;;;;;;26.85;17.10;;;22.60;43.90;;;;;;5049684;28;20036;-81
2022/05/05 00:05:30;;;;;;;27.10;17.13;;;22.70;44.00;;;;;;5045172;28;20064;-80
2022/05/05 00:07:55;;;;;;;27.67;17.02;;;22.70;44.00;;;;;;5049216;28;20029;-79
2022/05/05 00:15:50;;;;;;;32.95;16.58;;;22.70;44.10;;;;;;5049984;28;20450;-81
2022/05/05 00:18:16;;;;;;;25.77;16.45;;;22.70;44.10;;;;;;5049605;28;20119;-81
2022/05/05 00:20:42;;;;;;;23.35;15.27;;;22.80;44.20;;;;;;5049641;28;20108;-80
2022/05/05 00:23:08;;;;;;;25.63;15.38;;;22.80;44.40;;;;;;5049377;28;20035;-81
2022/05/05 00:25:33;;;;;;;25.88;15.77;;;22.80;44.50;;;;;;5049028;28;20025;-80
2022/05/05 00:27:59;;;;;;;26.00;14.55;;;22.80;44.50;;;;;;5049564;28;20029;-81
2022/05/05 00:30:25;;;;;;;23.23;15.48;;;22.80;44.50;;;;;;5049637;28;20021;-81
2022/05/05 00:32:51;;;;;;;23.15;15.05;;;22.80;44.60;;;;;;5049417;28;20036;-82
2022/05/05 00:35:16;;;;;;;21.67;14.40;;;22.80;44.70;;;;;;5048097;28;20572;-81
2022/05/05 00:37:42;;;;;;;22.33;14.60;;;22.80;44.70;;;;;;5049485;28;20032;-79
2022/05/05 00:40:08;;;;;;;23.52;14.57;;;22.80;44.90;;;;;;5049095;28;20025;-82
2022/05/05 00:42:35;;;;;;;24.33;14.65;;;22.80;45.10;;;;;;5048680;28;20401;-77
2022/05/05 00:45:02;;;;;;;24.77;14.82;;;22.80;45.30;;;;;;5049354;28;20025;-74
2022/05/05 00:47:28;;;;;;;27.50;14.57;;;22.80;45.10;;;;;;5050785;28;20025;-74
2022/05/05 00:49:54;;;;;;;28.75;15.27;;;22.80;46.10;;;;;;5050916;28;20079;-80
2022/05/05 00:52:19;;;;;;;23.35;13.80;;;22.80;45.80;;;;;;5049646;28;20021;-78
2022/05/05 00:54:45;;;;;;;25.85;14.15;;;22.70;45.50;;;;;;5050765;28;20036;-77
2022/05/05 00:57:13;;;;;;;25.25;16.50;;;22.70;45.10;;;;;;5050802;28;20036;-77
2022/05/05 00:59:41;;;;;;;28.42;14.73;;;22.70;44.80;;;;;;5049744;28;20058;-78
2022/05/05 01:02:07;;;;;;;23.10;14.05;;;22.70;45.20;;;;;;5050950;28;20029;-78
2022/05/05 01:04:33;;;;;;;24.85;14.45;;;22.70;44.90;;;;;;5050576;28;20108;-78
2022/05/05 01:06:59;;;;;;;28.33;15.23;;;22.80;45.10;;;;;;5049468;28;20105;-78
2022/05/05 01:09:26;;;;;;;26.25;13.77;;;22.80;45.10;;;;;;5050904;28;20028;-78
2022/05/05 01:11:52;;;;;;;23.20;14.10;;;22.70;45.20;;;;;;5050685;28;20029;-78
2022/05/05 01:14:17;;;;;;;21.42;13.80;;;22.70;45.20;;;;;;5050695;28;20098;-78
2022/05/05 01:16:43;;;;;;;25.08;13.95;;;22.70;45.40;;;;;;5050624;28;20079;-78
2022/05/05 01:19:09;;;;;;;23.23;14.13;;;22.80;45.40;;;;;;5049491;28;20040;-78
2022/05/05 01:21:35;;;;;;;22.10;13.32;;;22.80;45.50;;;;;;5050725;28;20024;-78
2022/05/05 01:24:00;;;;;;;20.52;13.40;;;22.80;45.50;;;;;;5050474;28;20029;-78
2022/05/05 01:29:14;;;;;;;19.17;12.00;;;22.80;45.70;;;;;;5049653;28;20029;-79
2022/05/05 01:31:40;;;;;;;21.92;12.95;;;22.70;45.60;;;;;;5050710;28;20078;-79
2022/05/05 01:34:06;;;;;;;21.40;12.70;;;22.80;45.80;;;;;;5050173;28;20021;-78
2022/05/05 01:36:31;;;;;;;21.38;13.32;;;22.80;45.80;;;;;;5051319;28;20128;-78
2022/05/05 01:38:57;;;;;;;20.70;12.70;;;22.80;45.90;;;;;;5054233;28;20578;-78
2022/05/05 01:41:23;;;;;;;19.83;13.60;;;22.80;45.90;;;;;;5054078;28;20069;-78
2022/05/05 01:43:49;;;;;;;18.55;12.38;;;22.80;46.00;;;;;;5053847;28;20021;-78
2022/05/05 01:46:15;;;;;;;21.00;12.45;;;22.80;46.00;;;;;;5054195;28;20098;-79
2022/05/05 01:48:41;;;;;;;20.27;12.73;;;22.80;46.10;;;;;;5052404;28;20397;-78
2022/05/05 01:51:06;;;;;;;21.80;12.07;;;22.80;46.00;;;;;;5053032;28;20078;-79
2022/05/05 01:53:36;;;;;;;19.52;12.15;;;22.80;46.10;;;;;;5052626;28;20033;-78
2022/05/05 01:56:07;;;;;;;21.80;12.25;;;22.80;46.10;;;;;;5036620;28;20036;-78
2022/05/05 01:58:33;;;;;;;19.20;12.10;;;22.80;46.10;;;;;;5054032;28;20061;-79
2022/05/05 02:00:59;;;;;;;20.73;11.75;;;22.80;46.10;;;;;;5053800;28;20053;-79
2022/05/05 02:03:25;;;;;;;22.45;11.20;;;22.80;46.20;;;;;;5052220;28;20067;-78
2022/05/05 02:05:51;;;;;;;18.55;12.43;;;22.80;46.30;;;;;;5052788;28;20036;-79
2022/05/05 02:08:16;;;;;;;19.60;11.05;;;22.80;46.30;;;;;;5053691;28;20029;-79
2022/05/05 02:10:42;;;;;;;18.88;12.18;;;22.80;46.30;;;;;;5053786;28;20032;-79
2022/05/05 02:13:09;;;;;;;18.98;11.48;;;22.80;46.30;;;;;;5053445;28;20024;-79
2022/05/05 02:15:35;;;;;;;17.63;11.40;;;22.80;46.30;;;;;;5053669;28;20027;-79
2022/05/05 02:18:12;;;;;;;20.35;12.05;;;22.90;46.50;;;;;;5052492;28;20107;-78
2022/05/05 02:20:39;;;;;;;20.20;11.50;;;22.80;46.50;;;;;;5053696;28;20036;-79
2022/05/05 02:23:06;;;;;;;18.27;11.80;;;22.80;46.50;;;;;;5035698;28;20063;-79
2022/05/05 02:25:32;;;;;;;16.95;11.80;;;22.90;46.50;;;;;;5053459;28;20083;-79
2022/05/05 02:27:58;;;;;;;17.50;11.18;;;22.80;46.50;;;;;;5051911;28;20065;-79
2022/05/05 02:30:25;;;;;;;18.27;10.65;;;22.80;46.60;;;;;;5052031;28;20102;-79
2022/05/05 02:32:51;;;;;;;16.77;10.50;;;22.80;46.60;;;;;;5052950;28;20025;-79
2022/05/05 02:35:18;;;;;;;17.77;11.05;;;22.80;46.70;;;;;;5053208;28;20028;-79
2022/05/05 02:40:29;;;;;;;16.35;10.27;;;22.80;46.70;;;;;;5052849;28;20130;-78
2022/05/05 02:42:55;;;;;;;15.25;10.30;;;22.80;46.70;;;;;;5052640;28;20021;-78
2022/05/05 02:45:21;;;;;;;18.70;10.88;;;22.80;46.70;;;;;;5051826;28;20025;-78
2022/05/05 02:47:49;;;;;;;18.17;10.40;;;22.80;46.80;;;;;;5051324;28;20021;-79
2022/05/05 02:50:16;;;;;;;17.48;10.63;;;22.80;46.80;;;;;;5052094;28;20029;-78
2022/05/05 02:52:41;;;;;;;16.30;10.35;;;22.80;46.80;;;;;;5051917;28;20029;-78
2022/05/05 02:55:07;;;;;;;15.70;10.07;;;22.80;46.80;;;;;;5052522;28;20492;-78
2022/05/05 02:57:33;;;;;;;16.33;10.50;;;22.90;46.90;;;;;;5034755;28;20146;-79
2022/05/05 02:59:59;;;;;;;17.00;9.93;;;22.80;46.90;;;;;;5051651;28;20446;-79
2022/05/05 03:02:25;;;;;;;16.20;10.43;;;22.80;46.90;;;;;;5051318;28;20078;-79
2022/05/05 03:04:51;;;;;;;16.80;10.35;;;22.80;46.90;;;;;;5052593;28;20544;-79
2022/05/05 03:07:18;;;;;;;17.83;10.63;;;22.80;47.00;;;;;;5052405;28;20036;-79
2022/05/05 03:09:43;;;;;;;15.13;10.18;;;22.80;47.00;;;;;;5034643;28;20028;-79
2022/05/05 03:12:10;;;;;;;16.75;10.43;;;22.80;47.00;;;;;;5052497;28;20035;-79
2022/05/05 03:14:36;;;;;;;16.45;9.75;;;22.80;47.00;;;;;;5051263;28;20090;-79
2022/05/05 03:17:03;;;;;;;16.05;10.07;;;22.80;47.00;;;;;;5050570;28;20107;-79
2022/05/05 03:19:29;;;;;;;16.58;10.25;;;22.80;47.00;;;;;;5051365;28;20029;-78
2022/05/05 03:21:55;;;;;;;16.27;10.25;;;22.80;47.00;;;;;;5051234;28;20573;-78
2022/05/05 03:24:21;;;;;;;16.83;9.82;;;22.80;47.00;;;;;;5050682;28;20102;-79
2022/05/05 03:26:47;;;;;;;15.18;9.40;;;22.90;47.10;;;;;;5052059;28;20401;-78
2022/05/05 03:29:13;;;;;;;16.30;9.82;;;22.90;47.20;;;;;;5052496;28;20021;-79
2022/05/05 03:31:39;;;;;;;14.85;9.40;;;22.80;47.20;;;;;;5052024;28;20395;-78
2022/05/05 03:34:05;;;;;;;16.45;9.70;;;22.90;47.30;;;;;;5051954;28;20090;-78
2022/05/05 03:36:31;;;;;;;16.70;9.57;;;22.80;47.30;;;;;;5050910;28;20563;-78
2022/05/05 03:38:56;;;;;;;16.25;9.45;;;22.90;47.30;;;;;;5051845;28;20028;-78
2022/05/05 03:41:23;;;;;;;15.95;9.35;;;22.80;47.30;;;;;;5050552;28;20040;-78
2022/05/05 03:43:48;;;;;;;15.65;8.73;;;22.90;47.40;;;;;;5051768;28;20090;-79
2022/05/05 03:46:14;;;;;;;14.40;8.88;;;22.90;47.50;;;;;;5050624;28;20108;-78
2022/05/05 03:48:40;;;;;;;16.30;9.90;;;22.80;47.40;;;;;;5051723;28;20032;-78
2022/05/05 03:51:06;;;;;;;13.98;9.30;;;22.80;47.40;;;;;;5050791;28;20052;-78
2022/05/05 03:53:32;;;;;;;15.60;8.80;;;22.80;47.50;;;;;;5051378;28;20799;-78
2022/05/05 03:55:58;;;;;;;17.83;9.10;;;22.80;47.40;;;;;;5051919;28;20122;-77
2022/05/05 03:58:25;;;;;;;14.52;8.45;;;22.80;47.50;;;;;;5052396;28;20036;-79
2022/05/05 04:00:51;;;;;;;15.13;9.07;;;22.80;47.50;;;;;;5051006;28;20025;-79
2022/05/05 04:03:32;;;;;;;15.80;9.07;;;22.90;47.60;;;;;;5051144;28;20033;-79
2022/05/05 04:06:05;;;;;;;12.98;8.10;;;22.80;48.10;;;;;;5051665;28;20477;-79
2022/05/05 04:08:32;;;;;;;15.10;9.45;;;22.80;47.60;;;;;;5051438;28;20028;-79
2022/05/05 04:10:59;;;;;;;14.93;9.07;;;22.90;47.70;;;;;;5051667;28;20025;-79
2022/05/05 04:13:25;;;;;;;13.48;8.93;;;22.80;47.60;;;;;;5051058;28;20025;-78
2022/05/05 04:15:51;;;;;;;13.60;8.68;;;22.80;47.60;;;;;;5051483;28;20021;-80
2022/05/05 04:18:17;;;;;;;13.32;8.20;;;22.80;47.60;;;;;;5051266;28;20029;-80
2022/05/05 04:20:43;;;;;;;13.40;8.18;;;22.80;47.60;;;;;;5051453;28;20032;-79
2022/05/05 04:23:10;;;;;;;14.15;8.82;;;22.80;47.70;;;;;;5049807;28;20115;-80
2022/05/05 04:25:40;;;;;;;14.13;8.30;;;22.90;47.70;;;;;;5050185;28;20032;-80
2022/05/05 04:28:07;;;;;;;13.48;8.13;;;22.80;47.70;;;;;;5050952;28;20443;-78
2022/05/05 04:30:33;;;;;;;12.13;7.72;;;22.90;47.90;;;;;;5050027;28;20512;-78
2022/05/05 04:32:59;;;;;;;13.90;8.63;;;22.90;47.90;;;;;;5050729;28;20049;-78
2022/05/05 04:35:25;;;;;;;14.18;8.00;;;22.80;47.80;;;;;;5049948;28;20481;-78
2022/05/05 04:37:50;;;;;;;15.65;8.20;;;22.80;48.00;;;;;;5051075;28;20094;-79
2022/05/05 04:40:16;;;;;;;14.70;9.15;;;22.90;48.10;;;;;;5051229;28;20025;-78
2022/05/05 04:42:42;;;;;;;12.80;8.00;;;22.80;47.90;;;;;;5051057;28;20033;-78
2022/05/05 04:45:08;;;;;;;14.00;8.60;;;22.90;48.10;;;;;;5050944;28;20036;-77
2022/05/05 04:47:34;;;;;;;13.75;8.50;;;22.90;48.00;;;;;;5049671;28;20068;-77
2022/05/05 04:50:00;;;;;;;14.27;8.20;;;22.80;47.90;;;;;;5050969;28;20053;-77
2022/05/05 04:52:25;;;;;;;19.85;8.43;;;22.90;48.10;;;;;;5051021;28;20434;-78
2022/05/05 04:54:51;;;;;;;15.75;8.38;;;22.90;48.10;;;;;;5050424;28;20112;-78
2022/05/05 04:57:17;;;;;;;15.25;7.78;;;22.90;48.10;;;;;;5050853;28;20493;-78
2022/05/05 04:59:43;;;;;;;14.90;8.20;;;22.90;48.00;;;;;;5049779;28;20036;-79
2022/05/05 05:02:09;;;;;;;13.88;8.30;;;22.90;48.10;;;;;;5049790;28;20029;-78
2022/05/05 05:04:35;;;;;;;13.15;7.97;;;22.90;48.10;;;;;;5049370;28;20082;-79
2022/05/05 05:07:01;;;;;;;14.70;7.82;;;22.90;48.10;;;;;;5050644;28;20021;-79
2022/05/05 05:09:27;;;;;;;12.43;8.00;;;22.90;48.20;;;;;;5050696;28;20074;-79
2022/05/05 05:11:52;;;;;;;13.02;8.10;;;22.90;48.20;;;;;;5051154;28;20033;-78
2022/05/05 05:14:18;;;;;;;14.00;8.27;;;22.90;48.20;;;;;;5054512;28;20029;-79
2022/05/05 05:16:44;;;;;;;14.38;7.65;;;22.90;48.20;;;;;;5055038;28;20044;-79
2022/05/05 05:19:10;;;;;;;14.57;8.32;;;22.90;48.20;;;;;;5054407;28;20143;-79
2022/05/05 05:21:35;;;;;;;15.77;8.35;;;22.90;48.20;;;;;;5054788;28;20127;-79
2022/05/05 05:24:02;;;;;;;12.80;7.80;;;22.90;48.20;;;;;;5054306;28;20025;-79
2022/05/05 05:26:28;;;;;;;13.35;7.80;;;22.90;48.20;;;;;;5054574;28;20025;-79
2022/05/05 05:28:54;;;;;;;12.75;7.60;;;22.90;48.20;;;;;;5053177;28;20028;-78
2022/05/05 05:31:21;;;;;;;15.23;8.02;;;22.90;48.40;;;;;;5054446;28;20083;-78
2022/05/05 05:33:48;;;;;;;11.98;7.40;;;22.90;48.50;;;;;;5054199;28;20392;-78
2022/05/05 05:36:14;;;;;;;15.50;7.72;;;22.90;48.50;;;;;;5053214;28;20536;-78
2022/05/05 05:38:40;;;;;;;13.45;8.15;;;22.90;48.50;;;;;;5052912;28;20064;-78
2022/05/05 05:41:06;;;;;;;13.32;7.68;;;22.90;48.50;;;;;;5036643;28;20068;-78
2022/05/05 05:43:31;;;;;;;12.90;7.57;;;22.90;48.50;;;;;;5053962;28;20057;-78
2022/05/05 05:45:57;;;;;;;12.65;8.00;;;22.90;48.50;;;;;;5053962;28;20025;-78
2022/05/05 05:48:23;;;;;;;14.13;7.00;;;22.90;48.50;;;;;;5054028;28;20494;-78
2022/05/05 05:50:49;;;;;;;14.73;7.72;;;22.90;48.60;;;;;;5053861;28;20029;-77
2022/05/05 05:53:14;;;;;;;13.88;8.27;;;22.90;48.50;;;;;;5052690;28;20037;-77
2022/05/05 05:55:40;;;;;;;12.27;7.80;;;22.90;48.50;;;;;;5052869;28;20057;-77
2022/05/05 05:58:06;;;;;;;13.23;7.75;;;22.90;48.50;;;;;;5052783;28;20032;-77
2022/05/05 06:00:32;;;;;;;10.32;6.68;;;22.90;48.60;;;;;;5053782;28;20029;-77
2022/05/05 06:05:43;;;;;;;13.00;7.25;;;22.90;48.60;;;;;;5052518;28;20090;-77
2022/05/05 06:08:08;;;;;;;11.73;6.97;;;22.90;48.50;;;;;;5035930;28;20036;-80
2022/05/05 06:10:36;;;;;;;14.95;7.90;;;22.90;48.50;;;;;;5049415;28;20029;-79
2022/05/05 06:13:02;;;;;;;11.95;6.88;;;22.90;48.50;;;;;;5053180;28;20101;-79
2022/05/05 06:15:28;;;;;;;13.77;7.13;;;22.90;48.50;;;;;;5052484;28;20079;-78
2022/05/05 06:17:54;;;;;;;11.65;7.40;;;22.90;48.50;;;;;;5052710;28;20519;-78
2022/05/05 06:20:20;;;;;;;11.32;6.97;;;22.90;48.50;;;;;;5051918;28;20033;-78
2022/05/05 06:22:46;;;;;;;12.43;7.10;;;22.90;48.50;;;;;;5051744;28;20040;-78
2022/05/05 06:25:12;;;;;;;11.68;7.22;;;22.90;48.50;;;;;;5051729;28;20032;-78
2022/05/05 06:27:39;;;;;;;10.98;6.88;;;22.90;48.50;;;;;;5051708;28;20029;-78
2022/05/05 06:30:06;;;;;;;10.82;7.00;;;23.00;48.60;;;;;;5053053;28;20412;-78
2022/05/05 06:32:32;;;;;;;10.63;6.35;;;22.90;48.60;;;;;;5051953;28;20032;-77
2022/05/05 06:34:58;;;;;;;11.82;7.30;;;22.90;48.60;;;;;;5052805;28;20659;-77
2022/05/05 06:37:24;;;;;;;12.65;6.95;;;23.00;48.70;;;;;;5053140;28;20028;-78
2022/05/05 06:39:50;;;;;;;13.13;6.78;;;22.90;48.60;;;;;;5053030;28;20021;-77
2022/05/05 06:42:16;;;;;;;13.25;7.13;;;22.90;48.60;;;;;;5051780;28;20025;-77
2022/05/05 06:44:42;;;;;;;10.25;6.53;;;23.00;48.70;;;;;;5052888;28;20029;-77
2022/05/05 06:47:08;;;;;;;13.73;6.75;;;23.00;48.80;;;;;;5035145;28;20025;-77
2022/05/05 06:49:35;;;;;;;10.55;6.45;;;22.90;48.90;;;;;;5052616;28;20059;-77
2022/05/05 06:52:00;;;;;;;13.23;7.13;;;23.00;49.00;;;;;;5051724;28;20374;-77
2022/05/05 06:54:27;;;;;;;13.73;7.38;;;23.00;48.90;;;;;;5051660;28;20090;-77
2022/05/05 06:56:54;;;;;;;13.38;7.03;;;22.90;48.90;;;;;;5052812;28;20517;-78
2022/05/05 06:59:20;;;;;;;11.90;6.85;;;23.00;48.90;;;;;;5051606;28;20486;-78
2022/05/05 07:01:51;;;;;;;12.13;6.90;;;23.00;48.90;;;;;;5051544;28;20031;-77
2022/05/05 07:07:03;;;;;;;12.13;6.75;;;23.00;48.80;;;;;;5052666;28;20037;-78
2022/05/05 07:12:33;;;;;;;13.95;7.20;;;23.00;48.80;;;;;;5013713;28;20429;-82
2022/05/05 07:14:59;;;;;;;9.30;6.05;;;23.00;49.10;;;;;;5013165;28;20033;-78
2022/05/05 07:17:25;;;;;;;12.35;6.63;;;23.00;48.90;;;;;;5040554;28;20515;-77
2022/05/05 07:19:51;;;;;;;14.70;6.72;;;23.00;49.60;;;;;;5050853;28;20329;-77
2022/05/05 07:22:17;;;;;;;14.10;7.03;;;23.00;49.70;;;;;;5052345;28;20506;-77
2022/05/05 07:24:43;;;;;;;13.35;6.90;;;23.00;50.00;;;;;;5052313;28;20025;-78
2022/05/05 07:27:10;;;;;;;11.82;6.93;;;23.00;49.70;;;;;;5050721;28;20057;-77
2022/05/05 07:29:37;;;;;;;14.48;7.53;;;23.00;50.60;;;;;;5052089;28;20021;-80
2022/05/05 07:32:03;;;;;;;17.35;6.78;;;23.10;51.90;;;;;;5052190;28;20032;-80
2022/05/05 07:34:29;;;;;;;14.25;6.50;;;23.00;51.40;;;;;;5051543;28;20037;-81
2022/05/05 07:36:55;;;;;;;14.43;6.30;;;22.90;50.80;;;;;;5050789;28;20108;-79
2022/05/05 07:39:22;;;;;;;15.73;4.95;;;22.80;49.90;;;;;;5052081;28;20135;-81
2022/05/05 07:41:49;;;;;;;44.20;23.77;;;22.90;49.00;;;;;;5050861;28;20033;-80
2022/05/05 07:44:15;;;;;;;33.17;19.52;;;22.70;48.50;;;;;;5051570;28;20032;-80
2022/05/05 07:46:41;;;;;;;30.27;16.42;;;22.70;49.10;;;;;;5050590;28;20064;-80
2022/05/05 07:49:07;;;;;;;25.95;15.15;;;22.70;48.20;;;;;;5045115;28;20086;-81
2022/05/05 07:51:34;;;;;;;23.02;9.65;;;22.60;48.90;;;;;;5038001;28;20064;-80
2022/05/05 07:56:45;;;;;;;17.33;7.20;;;22.70;48.90;;;;;;5054144;28;20100;-80
2022/05/05 07:59:11;;;;;;;14.32;6.80;;;22.70;48.70;;;;;;5050324;28;20422;-79
2022/05/05 08:01:37;;;;;;;19.25;7.38;;;22.70;48.30;;;;;;5051320;28;20021;-76
2022/05/05 08:04:04;;;;;;;23.17;7.40;;;22.70;48.50;;;;;;5051126;28;20104;-76
2022/05/05 08:06:30;;;;;;;14.75;6.22;;;22.70;48.60;;;;;;5051180;28;20021;-76
2022/05/05 08:08:56;;;;;;;11.93;5.43;;;22.70;48.30;;;;;;5051419;28;20029;-76
2022/05/05 08:11:22;;;;;;;16.00;5.43;;;22.80;48.30;;;;;;5051269;28;20029;-76
2022/05/05 08:13:48;;;;;;;12.02;5.72;;;22.80;48.20;;;;;;5049902;28;20434;-76
2022/05/05 08:16:13;;;;;;;11.25;5.28;;;22.80;48.10;;;;;;5050984;28;20044;-76
2022/05/05 08:18:39;;;;;;;11.40;5.35;;;22.90;48.10;;;;;;5050119;28;20029;-76
2022/05/05 08:21:06;;;;;;;11.13;5.07;;;22.90;48.80;;;;;;5049815;28;20025;-76
2022/05/05 08:23:33;;;;;;;13.98;5.32;;;22.90;48.10;;;;;;5049828;28;20036;-76
2022/05/05 08:28:43;;;;;;;12.50;4.97;;;23.00;48.20;;;;;;5051444;28;20037;-75
2022/05/05 08:31:10;;;;;;;12.35;5.47;;;23.00;48.30;;;;;;5050185;28;20029;-76
2022/05/05 08:33:38;;;;;;;12.10;4.95;;;23.00;48.20;;;;;;5050985;28;20064;-76
2022/05/05 08:36:05;;;;;;;13.27;5.05;;;23.00;48.30;;;;;;5050269;28;20473;-76
2022/05/05 08:38:31;;;;;;;10.77;5.30;;;23.00;48.30;;;;;;5050019;28;20040;-76
2022/05/05 08:40:58;;;;;;;9.55;4.50;;;23.00;48.30;;;;;;5049842;28;20029;-76
2022/05/05 08:43:23;;;;;;;12.05;4.95;;;23.00;48.30;;;;;;5051403;28;20029;-77
2022/05/05 08:45:53;;;;;;;10.88;5.05;;;23.00;48.30;;;;;;5050182;28;20402;-78
2022/05/05 08:48:19;;;;;;;11.38;4.90;;;23.00;49.00;;;;;;5054065;28;20040;-77
2022/05/05 08:50:51;;;;;;;13.05;4.90;;;23.00;48.40;;;;;;5055491;28;20060;-77
2022/05/05 08:53:21;;;;;;;11.35;5.07;;;23.00;49.00;;;;;;5053905;28;20028;-76
2022/05/05 08:55:46;;;;;;;;;;;23.00;48.40;;;;;;5057371;28;20032;-78
2022/05/05 08:58:13;;;;;;;10.73;4.70;;;23.00;48.50;;;;;;5055057;28;20296;-77
2022/05/05 09:00:38;;;;;;;10.85;4.80;;;23.00;48.40;;;;;;5055850;28;20543;-77
2022/05/05 09:03:08;;;;;;;12.82;4.78;;;23.00;48.40;;;;;;5055810;28;20021;-76
2022/05/05 09:05:43;;;;;;;10.38;4.82;;;23.00;48.40;;;;;;5056113;28;20460;-77
2022/05/05 09:08:28;;;;;;;9.90;4.57;;;23.00;48.50;;;;;;5055900;28;20057;-78
2022/05/05 09:10:56;;;;;;;9.02;4.13;;;23.00;48.60;;;;;;5022210;28;20029;-78
2022/05/05 09:13:24;;;;;;;9.13;4.18;;;23.00;48.60;;;;;;5054948;28;20027;-78
2022/05/05 09:15:53;;;;;;;11.40;4.90;;;23.00;48.60;;;;;;5057138;28;20028;-77
2022/05/05 09:18:25;;;;;;;9.82;5.03;;;23.00;48.60;;;;;;5054318;28;20032;-79
2022/05/05 09:20:52;;;;;;;10.02;4.30;;;23.00;48.60;;;;;;5054422;28;20517;-78
2022/05/05 09:23:34;;;;;;;8.18;4.43;;;23.00;48.60;;;;;;5053466;28;20060;-78
2022/05/05 09:26:01;;;;;;;9.65;4.18;;;23.00;48.70;;;;;;5054001;28;20036;-77
2022/05/05 09:28:31;;;;;;;8.10;4.30;;;23.00;48.60;;;;;;5054772;28;20086;-78
2022/05/05 09:31:03;;;;;;;9.60;4.60;;;23.00;48.70;;;;;;5054337;28;20477;-78
2022/05/05 09:33:38;;;;;;;8.77;4.22;;;23.00;48.90;;;;;;5049291;28;20040;-79
2022/05/05 09:36:09;;;;;;;9.00;4.13;;;23.10;49.20;;;;;;5051416;28;20083;-78
2022/05/05 09:38:56;;;;;;;8.50;3.70;;;23.10;49.00;;;;;;5053440;28;20056;-79
2022/05/05 09:41:30;;;;;;;11.25;4.07;;;23.00;49.30;;;;;;5037630;28;20128;-79
2022/05/05 09:43:58;;;;;;;11.23;4.55;;;23.00;49.60;;;;;;5053498;28;20053;-78
2022/05/05 09:46:27;;;;;;;9.75;3.97;;;23.10;49.80;;;;;;5054635;28;20056;-78
2022/05/05 09:49:07;;;;;;;9.43;4.13;;;23.00;49.80;;;;;;5054432;28;20032;-79
2022/05/05 09:51:43;;;;;;;11.43;4.50;;;23.10;49.80;;;;;;5054755;28;20403;-79
2022/05/05 09:59:49;;;;;;;13.10;4.43;;;23.10;49.70;;;;;;5075412;28;20032;-80
2022/05/05 10:05:22;;;;;;;10.23;3.95;;;23.20;49.90;;;;;;5077650;28;20036;-88
2022/05/05 10:07:53;;;;;;;13.25;4.55;;;23.20;49.70;;;;;;5027883;28;20096;-90
2022/05/05 10:13:39;;;;;;;10.52;3.88;;;23.20;49.50;;;;;;5027633;28;20449;-89
2022/05/05 10:16:55;;;;;;;10.10;3.70;;;23.20;49.30;;;;;;5042118;28;20025;-87
2022/05/05 10:19:36;;;;;;;11.52;4.13;;;23.10;49.20;;;;;;5031496;28;20025;-85
2022/05/05 10:22:25;;;;;;;9.25;3.80;;;23.10;49.10;;;;;;5042227;28;20589;-86
2022/05/05 10:25:19;;;;;;;11.25;3.63;;;23.10;48.90;;;;;;5036678;28;20401;-86
2022/05/05 10:27:50;;;;;;;15.15;3.63;;;23.00;48.40;;;;;;5065649;28;20032;-86
2022/05/05 10:30:58;;;;;;;10.95;3.65;;;23.00;48.10;;;;;;5078291;28;20469;-86
2022/05/05 10:34:00;;;;;;;10.48;3.20;;;23.10;47.60;;;;;;5043324;28;20553;-84
2022/05/05 10:36:30;;;;;;;12.48;3.35;;;23.10;47.30;;;;;;5051982;28;20021;-84
2022/05/05 10:38:56;;;;;;;8.73;3.05;;;23.10;47.90;;;;;;5036005;28;20385;-85
2022/05/05 10:41:31;;;;;;;10.07;3.45;;;23.10;46.80;;;;;;5019252;28;20068;-84
2022/05/05 10:44:24;;;;;;;12.77;3.60;;;23.10;47.30;;;;;;5033090;28;20032;-85
2022/05/05 10:46:50;;;;;;;23.58;14.48;;;23.00;47.30;;;;;;5058769;28;20026;-85
2022/05/05 10:49:34;;;;;;;20.60;10.30;;;23.00;47.30;;;;;;5040947;28;20025;-85
2022/05/05 10:52:12;;;;;;;21.20;10.93;;;23.00;47.00;;;;;;5040814;28;20111;-85
2022/05/05 10:54:48;;;;;;;19.45;10.00;;;22.90;47.50;;;;;;5038458;28;20036;-85
2022/05/05 10:57:26;;;;;;;54.33;9.35;;;22.90;46.30;;;;;;5051735;28;20060;-77
2022/05/05 11:00:11;;;;;;;24.13;8.40;;;22.90;45.60;;;;;;5052738;28;20039;-78
2022/05/05 11:02:38;;;;;;;22.38;7.35;;;23.00;46.00;;;;;;5063953;28;20028;-77
2022/05/05 11:05:27;;;;;;;17.77;7.43;;;23.00;45.90;;;;;;5071040;28;20032;-78
2022/05/05 11:08:17;;;;;;;18.48;6.85;;;23.00;45.80;;;;;;5072304;28;20041;-77
2022/05/05 11:13:43;;;;;;;16.95;6.18;;;23.00;45.80;;;;;;5071848;28;19915;-77
2022/05/05 11:22:09;;;;;;;12.82;5.70;;;23.00;46.00;;;;;;5071585;28;20032;-77
2022/05/05 11:24:37;;;;;;;14.15;6.28;;;23.00;46.00;;;;;;5070420;28;20032;-77
2022/05/05 11:27:04;;;;;;;14.65;6.43;;;23.00;46.20;;;;;;5071115;28;20032;-76
2022/05/05 11:29:31;;;;;;;16.63;6.07;;;23.00;46.20;;;;;;5071878;28;20051;-76
2022/05/05 11:32:02;;;;;;;13.82;5.85;;;23.00;46.20;;;;;;5071852;28;20431;-75
2022/05/05 11:34:47;;;;;;;17.10;6.25;;;23.00;46.30;;;;;;5070219;28;20048;-75
2022/05/05 11:37:13;;;;;;;19.67;6.22;;;23.10;46.40;;;;;;5064374;28;20037;-76
2022/05/05 11:39:39;;;;;;;11.88;5.80;;;23.00;46.60;;;;;;5050425;28;20031;-75
2022/05/05 11:42:14;;;;;;;13.43;5.43;;;23.00;46.60;;;;;;5051819;28;20460;-76
2022/05/05 11:44:41;;;;;;;16.55;6.25;;;23.00;46.70;;;;;;5051328;28;20037;-76
2022/05/05 11:47:19;;;;;;;15.50;6.30;;;23.10;47.10;;;;;;5034427;28;20405;-77
2022/05/05 11:49:51;;;;;;;17.17;5.68;;;23.10;47.20;;;;;;5051538;28;20049;-78
2022/05/05 11:52:25;;;;;;;10.40;5.38;;;23.10;47.30;;;;;;5050469;28;20025;-77
2022/05/05 11:54:56;;;;;;;10.80;5.18;;;23.00;47.30;;;;;;5051076;28;20032;-77
2022/05/05 11:57:38;;;;;;;11.32;5.75;;;23.00;47.30;;;;;;5050680;28;20102;-77
2022/05/05 12:02:52;;;;;;;14.65;5.97;;;23.00;47.40;;;;;;5051428;28;20025;-76
2022/05/05 12:05:21;;;;;;;11.48;5.40;;;23.10;47.50;;;;;;5049840;28;20061;-76
2022/05/05 12:07:47;;;;;;;14.38;5.97;;;23.10;47.60;;;;;;5049124;28;20417;-76
2022/05/05 12:10:15;;;;;;;12.95;5.32;;;23.10;47.50;;;;;;5051196;28;20152;-76
2022/05/05 12:12:49;;;;;;;15.88;5.18;;;23.10;47.60;;;;;;5051466;28;20029;-76
2022/05/05 12:15:18;;;;;;;14.18;5.18;;;23.10;47.60;;;;;;5050210;28;20025;-76
2022/05/05 12:17:57;;;;;;;14.32;5.75;;;23.20;47.80;;;;;;5049811;28;20035;-76
2022/05/05 12:20:23;;;;;;;10.88;5.78;;;23.20;47.40;;;;;;5049788;28;20032;-76
2022/05/05 12:22:58;;;;;;;12.68;5.63;;;23.20;48.60;;;;;;5047532;28;20032;-76
2022/05/05 12:25:25;;;;;;;12.80;6.18;;;23.30;48.80;;;;;;5051317;28;20342;-76
2022/05/05 12:27:59;;;;;;;12.82;6.47;;;23.30;49.10;;;;;;5047360;28;20401;-76
2022/05/05 12:30:32;;;;;;;14.52;6.20;;;23.30;48.90;;;;;;5041281;28;20029;-77
2022/05/05 12:32:58;;;;;;;16.60;6.07;;;23.30;49.10;;;;;;5050507;28;20025;-76
2022/05/05 12:35:34;;;;;;;18.40;6.32;;;23.30;48.90;;;;;;5051097;28;20497;-76
2022/05/05 12:38:01;;;;;;;15.70;5.82;;;23.30;49.30;;;;;;5050995;28;20033;-76
2022/05/05 12:40:27;;;;;;;14.18;5.78;;;23.30;49.20;;;;;;5050640;28;20029;-76
2022/05/05 12:43:09;;;;;;;16.17;6.03;;;23.30;49.30;;;;;;5049264;28;20056;-77
2022/05/05 12:45:37;;;;;;;21.08;6.40;;;23.20;49.50;;;;;;5050999;28;20028;-75
2022/05/05 12:48:04;;;;;;;17.33;6.25;;;23.20;49.50;;;;;;5032902;28;20127;-68
2022/05/05 12:50:46;;;;;;;13.68;5.88;;;23.20;49.60;;;;;;5049848;28;20445;-69
2022/05/05 13:01:52;;;;;;;58.80;31.75;;;23.10;48.30;;;;;;5033565;28;20398;-75
2022/05/05 13:04:19;;;;;;;51.22;29.25;;;23.10;48.00;;;;;;5050524;28;20021;-75
2022/05/05 13:06:47;;;;;;;44.67;27.63;;;23.10;48.00;;;;;;5050802;28;20025;-75
2022/05/05 13:09:13;;;;;;;44.40;26.23;;;23.10;48.00;;;;;;5051091;28;20251;-75
2022/05/05 13:11:44;;;;;;;44.30;25.95;;;23.10;48.00;;;;;;5049768;28;20021;-75
2022/05/05 13:14:11;;;;;;;41.70;25.30;;;23.20;48.20;;;;;;5049458;28;20397;-75
2022/05/05 13:16:37;;;;;;;42.33;24.83;;;23.20;48.10;;;;;;5050781;28;20474;-75
2022/05/05 13:19:04;;;;;;;43.50;25.08;;;23.20;48.10;;;;;;5049565;28;20025;-75
2022/05/05 13:21:32;;;;;;;42.63;24.77;;;23.10;48.00;;;;;;5050714;28;20029;-75
2022/05/05 13:23:58;;;;;;;41.17;23.80;;;23.20;48.00;;;;;;5049222;28;20055;-75
2022/05/05 13:26:24;;;;;;;37.08;24.10;;;23.10;48.00;;;;;;5050420;28;20489;-75
2022/05/05 13:28:50;;;;;;;37.70;23.75;;;23.10;48.00;;;;;;5050590;28;20037;-75
2022/05/05 13:31:15;;;;;;;39.92;23.95;;;23.10;48.00;;;;;;5032890;28;20029;-74
2022/05/05 13:33:41;;;;;;;37.47;22.67;;;23.10;48.10;;;;;;5052839;28;20428;-75
2022/05/05 13:36:07;;;;;;;38.03;24.30;;;23.20;48.10;;;;;;5053210;28;20031;-75